Time;durP1;ratioP1;P1;durP2;ratioP2;P2;SDS_P1;SDS_P2;PMS_P1;PMS_P2;Temp;Humidity;BMP_temperature;BMP_pressure;BME280_temperature;BME280_humidity;BME280_pressure;Samples;Min_cycle;Max_cycle;Signal;HPM_P1;HPM_P2
2021/01/23 00:01:19;;;;;;;13.02;6.63;;;-0.10;99.90;;;-2.02;92.80;99429.22;5018231;28;20112;-40
2021/01/23 00:03:47;;;;;;;16.88;6.57;;;-0.10;99.90;;;-2.00;92.52;99429.06;5050737;28;20037;-40
2021/01/23 00:06:14;;;;;;;15.57;6.97;;;-0.10;99.90;;;-2.04;92.96;99423.22;5034360;28;20100;-40
2021/01/23 00:08:41;;;;;;;12.43;6.05;;;-0.10;99.90;;;-2.05;92.75;99414.34;5018228;28;20094;-40
2021/01/23 00:11:09;;;;;;;11.93;5.53;;;-0.10;99.90;;;-2.07;91.91;99426.22;5034300;28;20120;-40
2021/01/23 00:13:37;;;;;;;11.63;5.85;;;-0.10;99.90;;;-2.06;92.56;99423.38;5017900;28;20041;-40
2021/01/23 00:16:05;;;;;;;16.80;6.07;;;-0.10;99.90;;;-2.07;92.72;99431.56;5050705;28;20048;-40
2021/01/23 00:18:32;;;;;;;11.43;6.57;;;-0.10;99.90;;;-2.14;92.05;99420.69;5034187;28;20072;-40
2021/01/23 00:20:59;;;;;;;8.55;5.15;;;-0.10;99.90;;;-2.12;92.06;99429.38;5034187;28;20087;-40
2021/01/23 00:23:26;;;;;;;9.93;6.07;;;-0.10;99.90;;;-2.15;91.98;99416.34;5017470;28;20049;-40
2021/01/23 00:25:54;;;;;;;11.97;6.10;;;-0.10;99.90;;;-2.12;92.46;99423.19;5034170;28;20044;-40
2021/01/23 00:28:22;;;;;;;12.55;5.65;;;-0.10;99.90;;;-2.11;92.14;99414.19;5034146;28;20048;-40
2021/01/23 00:30:50;;;;;;;13.20;5.43;;;-0.10;99.90;;;-2.13;91.86;99421.50;5017833;28;20047;-40
2021/01/23 00:33:17;;;;;;;14.30;6.20;;;-0.10;99.90;;;-2.13;91.90;99427.72;5050247;28;20041;-40
2021/01/23 00:35:44;;;;;;;13.98;6.55;;;-0.20;99.90;;;-2.13;92.50;99416.16;5017779;28;20040;-40
2021/01/23 00:38:11;;;;;;;9.82;6.35;;;-0.10;99.90;;;-2.12;92.32;99420.50;5001547;28;20053;-40
2021/01/23 00:40:39;;;;;;;15.17;6.37;;;-0.10;99.90;;;-2.19;92.39;99421.19;5034006;28;20048;-40
2021/01/23 00:43:06;;;;;;;11.07;6.00;;;-0.10;99.90;;;-2.16;93.08;99417.34;5001470;28;20045;-40
2021/01/23 00:45:34;;;;;;;10.02;5.88;;;-0.20;99.90;;;-2.15;92.09;99424.38;5033864;28;20132;-40
2021/01/23 00:48:12;;;;;;;12.85;6.18;;;-0.20;99.90;;;-2.15;92.71;99419.03;5033149;28;20041;-40
2021/01/23 00:50:40;;;;;;;12.57;6.63;;;-0.20;99.90;;;-2.15;92.97;99421.69;5017408;28;20466;-40
2021/01/23 00:53:08;;;;;;;11.15;6.35;;;-0.20;99.90;;;-2.17;92.25;99421.03;5033510;28;20037;-40
2021/01/23 00:55:36;;;;;;;14.15;6.45;;;-0.20;99.90;;;-2.15;92.15;99420.84;5018009;28;20067;-40
2021/01/23 00:58:04;;;;;;;10.80;6.13;;;-0.20;99.90;;;-2.15;92.16;99426.19;5017483;28;20053;-40
2021/01/23 01:00:32;;;;;;;11.45;6.20;;;-0.20;99.90;;;-2.17;92.81;99429.88;5050268;28;20477;-40
2021/01/23 01:03:02;;;;;;;11.75;6.25;;;-0.20;99.90;;;-2.17;92.81;99421.84;5034106;28;20052;-40
2021/01/23 01:05:37;;;;;;;15.27;7.10;;;-0.20;99.90;;;-2.15;92.22;99434.22;5034797;28;20051;-40
2021/01/23 01:08:04;;;;;;;15.73;7.10;;;-0.20;99.90;;;-2.15;92.73;99429.72;5017016;28;20131;-40
2021/01/23 01:10:32;;;;;;;11.27;6.22;;;-0.20;99.90;;;-2.14;92.17;99430.53;5033974;28;20041;-40
2021/01/23 01:13:05;;;;;;;11.45;5.95;;;-0.20;99.90;;;-2.13;92.65;99430.38;5034635;28;20045;-40
2021/01/23 01:15:33;;;;;;;11.77;5.57;;;-0.20;99.90;;;-2.05;92.33;99434.91;5033622;28;20108;-40
2021/01/23 01:18:00;;;;;;;13.85;5.75;;;-0.10;99.90;;;-1.94;92.81;99426.56;5017324;28;20064;-40
2021/01/23 01:20:27;;;;;;;11.97;5.73;;;0.00;99.90;;;-1.79;93.44;99431.25;5017295;28;20072;-40
2021/01/23 01:22:55;;;;;;;14.82;6.15;;;0.10;99.90;;;-1.67;94.39;99434.44;5001043;28;20468;-40
2021/01/23 01:25:22;;;;;;;15.10;6.57;;;0.20;99.90;;;-1.61;94.34;99431.91;5017143;28;20052;-40
2021/01/23 01:27:49;;;;;;;17.75;7.53;;;0.30;99.90;;;-1.31;94.63;99437.63;5033571;28;20110;-40
2021/01/23 01:30:19;;;;;;;16.55;7.07;;;0.40;99.90;;;-1.27;94.68;99438.09;5017162;28;20515;-40
2021/01/23 01:32:46;;;;;;;15.35;6.93;;;0.60;99.90;;;-1.25;94.85;99436.06;5049805;28;20034;-40
2021/01/23 01:35:14;;;;;;;14.07;6.53;;;0.60;99.90;;;-1.21;94.69;99439.25;5016931;28;20053;-40
2021/01/23 01:37:41;;;;;;;15.35;7.68;;;0.70;99.90;;;-1.13;95.03;99443.78;5033434;28;20040;-40
2021/01/23 01:40:11;;;;;;;16.50;8.10;;;0.70;99.90;;;-1.02;94.97;99444.25;5017329;28;20103;-40
2021/01/23 01:42:38;;;;;;;14.43;7.53;;;0.80;99.90;;;-0.90;95.16;99438.53;5049907;28;20505;-40
2021/01/23 01:45:08;;;;;;;19.10;7.90;;;0.90;99.90;;;-0.81;95.35;99440.16;5000773;28;20060;-40
2021/01/23 01:47:40;;;;;;;13.80;7.15;;;1.00;99.90;;;-0.77;95.65;99428.13;5049698;28;20125;-40
2021/01/23 01:50:10;;;;;;;17.08;7.88;;;1.10;99.90;;;-0.73;95.77;99439.31;5051058;28;20041;-40
2021/01/23 01:52:38;;;;;;;15.20;8.05;;;1.10;99.90;;;-0.71;95.20;99431.09;5049245;28;20095;-40
2021/01/23 01:55:07;;;;;;;13.95;7.88;;;1.20;99.90;;;-0.75;95.52;99433.28;5033301;28;20052;-40
2021/01/23 01:57:35;;;;;;;15.70;7.13;;;1.20;99.90;;;-0.74;95.22;99437.63;5033111;28;20601;-40
2021/01/23 02:00:06;;;;;;;17.73;8.07;;;1.20;99.90;;;-0.76;94.53;99429.78;5002556;28;20505;-40
2021/01/23 02:02:59;;;;;;;13.43;6.50;;;1.20;99.90;;;-0.74;95.06;99422.41;5054556;28;20526;-40
2021/01/23 02:05:47;;;;;;;16.88;6.88;;;1.20;99.90;;;-0.74;94.86;99422.41;5020191;28;20049;-40
2021/01/23 02:08:40;;;;;;;15.05;6.50;;;1.20;99.90;;;-0.73;94.40;99426.75;5038440;28;20116;-40
2021/01/23 02:11:36;;;;;;;14.57;6.50;;;1.20;99.90;;;-0.75;94.13;99420.75;5036566;28;20099;-40
2021/01/23 02:14:22;;;;;;;12.82;7.50;;;1.20;99.90;;;-0.78;93.77;99420.25;5036263;28;20055;-40
2021/01/23 02:16:54;;;;;;;18.95;6.90;;;1.20;99.90;;;-0.81;93.55;99413.38;5036473;28;20140;-40
2021/01/23 02:19:45;;;;;;;14.43;6.75;;;1.10;99.90;;;-0.84;93.69;99413.72;5036556;28;20049;-40
2021/01/23 02:22:32;;;;;;;11.32;6.07;;;1.10;99.90;;;-0.90;92.95;99409.91;5036118;28;20103;-40
2021/01/23 02:25:04;;;;;;;12.13;6.50;;;1.00;99.90;;;-0.95;93.08;99414.94;5052836;28;20045;-40
2021/01/23 02:27:47;;;;;;;14.32;6.20;;;1.00;99.90;;;-0.99;92.70;99407.44;5019820;28;20397;-40
2021/01/23 02:30:29;;;;;;;12.52;6.60;;;1.00;99.90;;;-1.01;93.21;99410.25;5019542;28;20040;-40
2021/01/23 02:33:01;;;;;;;14.73;6.93;;;0.90;99.90;;;-1.02;93.40;99409.44;5036345;28;20056;-40
2021/01/23 02:35:30;;;;;;;15.85;6.72;;;0.90;99.90;;;-1.03;92.85;99418.50;5019439;28;20503;-40
2021/01/23 02:37:58;;;;;;;11.68;6.25;;;0.90;99.90;;;-1.05;93.49;99415.16;5003585;28;20507;-40
2021/01/23 02:40:27;;;;;;;9.23;5.60;;;0.90;99.90;;;-1.09;93.10;99419.16;5019868;28;20052;-40
2021/01/23 02:42:55;;;;;;;11.85;6.15;;;0.90;99.90;;;-1.06;93.08;99417.97;5052420;28;20480;-40
2021/01/23 02:45:22;;;;;;;12.55;6.85;;;0.90;99.90;;;-1.06;93.75;99423.34;5003775;28;20167;-40
2021/01/23 02:47:50;;;;;;;10.55;6.32;;;0.90;99.90;;;-1.07;93.13;99419.00;4987443;28;20087;-40
2021/01/23 02:50:18;;;;;;;9.98;5.60;;;0.90;99.90;;;-1.06;93.83;99421.50;5003546;28;20577;-40
2021/01/23 02:53:08;;;;;;;11.75;6.07;;;0.90;99.90;;;-1.06;93.75;99418.84;5035362;28;20505;-40
2021/01/23 02:55:41;;;;;;;12.98;6.20;;;0.90;99.90;;;-1.06;93.31;99418.84;5019776;28;20037;-40
2021/01/23 02:58:11;;;;;;;10.85;6.10;;;0.90;99.90;;;-1.07;93.23;99419.00;5035787;28;20079;-40
2021/01/23 03:00:42;;;;;;;11.02;5.88;;;0.90;99.90;;;-1.06;94.00;99409.94;5052023;28;20045;-40
2021/01/23 03:03:13;;;;;;;14.93;6.38;;;0.90;99.90;;;-0.99;93.89;99413.59;5035584;28;20416;-40
2021/01/23 03:05:43;;;;;;;11.02;5.90;;;0.90;99.90;;;-0.99;93.43;99416.28;5019786;28;20049;-40
2021/01/23 03:08:20;;;;;;;11.63;6.30;;;0.90;99.90;;;-0.94;93.43;99415.78;5018978;28;20048;-40
2021/01/23 03:10:47;;;;;;;13.38;6.40;;;1.00;99.90;;;-0.97;93.61;99419.63;5018766;28;20045;-40
2021/01/23 03:13:16;;;;;;;9.35;5.70;;;1.00;99.90;;;-0.97;93.62;99419.63;5035570;28;20496;-41
2021/01/23 03:15:43;;;;;;;14.18;6.40;;;0.90;99.90;;;-0.96;94.09;99415.94;5035162;28;20071;-40
2021/01/23 03:18:11;;;;;;;11.93;6.03;;;1.00;99.90;;;-0.97;93.99;99419.63;5003279;28;20068;-40
2021/01/23 03:20:39;;;;;;;10.48;5.75;;;1.00;99.90;;;-0.97;94.10;99418.81;5019072;28;20068;-40
2021/01/23 03:23:07;;;;;;;11.40;5.95;;;1.00;99.90;;;-1.00;94.06;99413.78;5035617;28;20040;-40
2021/01/23 03:25:35;;;;;;;;;;;0.90;99.90;;;-1.02;94.10;99412.13;5035675;28;20045;-40
2021/01/23 03:28:03;;;;;;;10.00;5.82;;;0.90;99.90;;;-0.99;93.79;99407.44;5018635;28;19920;-40
2021/01/23 03:30:31;;;;;;;12.57;6.28;;;0.90;99.90;;;-0.97;93.67;99405.41;5018521;28;20411;-40
2021/01/23 03:32:59;;;;;;;13.30;5.88;;;0.90;99.90;;;-0.97;93.44;99400.88;5035075;28;20125;-40
2021/01/23 03:35:28;;;;;;;10.77;5.80;;;0.90;99.90;;;-0.94;94.56;99389.00;5035156;28;20041;-40
2021/01/23 03:37:56;;;;;;;12.13;6.18;;;1.00;99.90;;;-0.94;93.65;99394.34;5002563;28;20040;-40
2021/01/23 03:40:23;;;;;;;;;;;1.00;99.90;;;-0.97;94.26;99397.38;5019464;28;20102;-40
2021/01/23 03:42:51;;;;;;;10.70;5.72;;;1.00;99.90;;;-0.95;93.66;99390.00;5034969;28;19921;-40
2021/01/23 03:45:19;;;;;;;10.77;5.75;;;1.00;99.90;;;-0.86;93.29;99394.31;5018487;28;20426;-40
2021/01/23 03:47:47;;;;;;;13.90;6.38;;;1.00;99.90;;;-0.81;94.24;99389.28;5034833;28;20037;-40
2021/01/23 03:50:16;;;;;;;17.38;6.72;;;1.10;99.90;;;-0.83;93.71;99387.78;5034899;28;20052;-40
2021/01/23 03:52:43;;;;;;;11.38;6.07;;;1.10;99.90;;;-0.83;93.15;99385.13;5018180;28;20063;-40
2021/01/23 03:55:11;;;;;;;13.27;6.05;;;1.10;99.90;;;-0.79;94.08;99389.97;5018537;28;20124;-40
2021/01/23 03:57:39;;;;;;;10.93;5.78;;;1.10;99.90;;;-0.78;93.52;99380.06;5034702;28;20099;-40
2021/01/23 04:00:08;;;;;;;10.25;5.93;;;1.10;99.90;;;-0.77;93.89;99377.22;5034830;28;20396;-40
2021/01/23 04:02:36;;;;;;;10.95;6.25;;;1.10;99.90;;;-0.79;93.29;99375.72;5034621;28;20423;-40
2021/01/23 04:05:06;;;;;;;13.48;6.22;;;1.10;99.90;;;-0.84;92.92;99378.91;5001778;28;20110;-40
2021/01/23 04:07:33;;;;;;;10.52;5.90;;;1.10;99.90;;;-0.80;93.63;99374.88;5050830;28;20163;-40
2021/01/23 04:10:01;;;;;;;10.65;6.30;;;1.10;99.90;;;-0.78;93.46;99372.88;4985840;28;20045;-40
2021/01/23 04:12:29;;;;;;;10.88;6.22;;;1.10;99.90;;;-0.78;92.84;99372.03;5018696;28;20116;-40
2021/01/23 04:14:57;;;;;;;15.45;5.47;;;1.10;99.90;;;-0.80;93.21;99374.06;5001780;28;20487;-40
2021/01/23 04:17:25;;;;;;;13.23;5.95;;;1.10;99.90;;;-0.82;92.60;99366.16;4985745;28;20135;-40
2021/01/23 04:19:52;;;;;;;10.80;5.30;;;1.10;99.90;;;-0.75;92.74;99361.81;5034143;28;20040;-40
2021/01/23 04:22:20;;;;;;;11.80;5.55;;;1.10;99.90;;;-0.81;93.27;99370.53;5017559;28;20518;-40
2021/01/23 04:24:47;;;;;;;9.30;5.30;;;1.10;99.90;;;-0.79;93.17;99373.03;5017925;28;20045;-40
2021/01/23 04:27:15;;;;;;;11.00;5.95;;;1.10;99.90;;;-0.75;93.23;99371.69;5017676;28;20040;-40
2021/01/23 04:29:43;;;;;;;13.00;5.50;;;1.10;99.90;;;-0.68;93.22;99367.28;5017724;28;20128;-40
2021/01/23 04:32:10;;;;;;;9.98;4.85;;;1.20;99.90;;;-0.61;93.13;99364.75;5034231;28;20037;-40
2021/01/23 04:34:38;;;;;;;12.25;5.57;;;1.20;99.90;;;-0.57;93.24;99341.13;5017458;28;20056;-41
2021/01/23 04:37:05;;;;;;;11.45;5.25;;;1.30;99.90;;;-0.41;92.90;99353.59;5019216;28;20047;-40
2021/01/23 04:39:33;;;;;;;9.68;5.43;;;1.40;99.90;;;-0.35;92.99;99360.91;5017886;28;20064;-40
2021/01/23 04:42:00;;;;;;;12.05;5.63;;;1.40;99.90;;;-0.35;92.56;99356.41;5034316;28;20044;-40
2021/01/23 04:44:28;;;;;;;10.18;5.75;;;1.50;99.90;;;-0.35;92.48;99356.41;5001462;28;20045;-40
2021/01/23 04:46:56;;;;;;;11.00;5.63;;;1.50;99.90;;;-0.36;92.69;99346.69;5017579;28;20041;-40
2021/01/23 04:49:25;;;;;;;10.30;5.28;;;1.50;99.90;;;-0.23;92.61;99353.31;5033682;28;20503;-39
2021/01/23 04:51:52;;;;;;;8.88;5.47;;;1.60;99.90;;;-0.22;92.54;99352.28;5049889;28;20033;-40
2021/01/23 04:54:20;;;;;;;10.63;5.80;;;1.60;99.90;;;-0.23;92.61;99350.63;5001034;28;20072;-40
2021/01/23 04:56:51;;;;;;;11.10;5.50;;;1.60;99.90;;;-0.19;92.38;99338.53;5017731;28;20120;-40
2021/01/23 04:59:18;;;;;;;10.65;5.43;;;1.60;99.90;;;-0.12;92.11;99338.66;5017285;28;20600;-40
2021/01/23 05:02:16;;;;;;;13.43;5.53;;;1.70;99.90;;;-0.13;91.76;99328.94;5017488;28;20482;-40
2021/01/23 05:04:51;;;;;;;10.40;5.40;;;1.70;99.90;;;-0.11;91.82;99327.75;5050234;28;20511;-40
2021/01/23 05:07:39;;;;;;;9.95;4.82;;;1.70;99.90;;;-0.11;91.29;99329.59;5033998;28;20045;-40
2021/01/23 05:10:27;;;;;;;9.48;4.95;;;1.70;99.90;;;-0.10;91.27;99325.91;5033525;28;20041;-40
2021/01/23 05:12:58;;;;;;;12.40;4.78;;;1.70;99.90;;;-0.05;91.47;99334.22;5050063;28;20041;-40
2021/01/23 05:15:31;;;;;;;10.18;4.90;;;1.80;99.90;;;-0.02;92.06;99336.56;5033290;28;20064;-40
2021/01/23 05:18:10;;;;;;;10.77;4.80;;;1.80;99.90;;;0.07;91.95;99343.53;5017536;28;20507;-40
2021/01/23 05:20:49;;;;;;;9.52;4.90;;;1.80;99.90;;;0.11;91.63;99333.25;5033484;28;20060;-40
2021/01/23 05:23:30;;;;;;;8.65;5.20;;;1.90;99.90;;;0.22;91.54;99334.69;5049975;28;20049;-40
2021/01/23 05:26:01;;;;;;;10.93;5.03;;;2.00;99.90;;;0.24;91.17;99340.69;5035247;28;20420;-40
2021/01/23 05:28:33;;;;;;;10.93;5.40;;;2.00;99.90;;;0.26;91.19;99323.41;5049827;28;20044;-40
2021/01/23 05:31:04;;;;;;;10.40;4.93;;;2.10;99.90;;;0.30;91.03;99340.00;5016989;28;20457;-40
2021/01/23 05:33:35;;;;;;;11.93;4.85;;;2.10;99.90;;;0.32;90.83;99337.97;5049904;28;20410;-40
2021/01/23 05:36:06;;;;;;;10.20;4.85;;;2.10;99.90;;;0.39;90.76;99343.41;5036934;28;20044;-40
2021/01/23 05:38:38;;;;;;;9.50;4.57;;;2.20;99.90;;;0.41;90.34;99322.63;5053755;28;20081;-40
2021/01/23 05:41:08;;;;;;;8.90;4.75;;;2.20;99.90;;;0.39;90.65;99329.97;5053918;28;20049;-40
2021/01/23 05:43:57;;;;;;;8.68;5.15;;;2.20;99.90;;;0.35;90.73;99326.00;5070034;28;20192;-40
2021/01/23 05:46:34;;;;;;;9.43;4.70;;;2.20;99.90;;;0.34;90.43;99318.97;5020542;28;20057;-40
2021/01/23 05:49:01;;;;;;;13.20;5.57;;;2.10;99.90;;;0.34;90.44;99332.38;5037056;28;20041;-40
2021/01/23 05:51:29;;;;;;;10.67;5.30;;;2.20;99.90;;;0.36;90.43;99325.84;5020505;28;20037;-40
2021/01/23 05:53:56;;;;;;;9.70;5.22;;;2.20;99.90;;;0.38;90.69;99334.53;5020362;28;20446;-40
2021/01/23 05:56:26;;;;;;;10.45;5.35;;;2.20;99.90;;;0.41;90.70;99336.84;5004774;28;20418;-40
2021/01/23 05:58:54;;;;;;;10.80;5.00;;;2.20;99.90;;;0.46;90.92;99338.16;5020745;28;20057;-40
2021/01/23 06:01:22;;;;;;;8.40;4.57;;;2.20;99.90;;;0.49;90.25;99335.09;5020635;28;20123;-40
2021/01/23 06:03:54;;;;;;;9.77;4.63;;;2.30;99.90;;;0.43;89.55;99337.50;5036584;28;20415;-40
2021/01/23 06:06:21;;;;;;;9.98;4.88;;;2.30;99.90;;;0.36;89.71;99339.25;5053313;28;20071;-40
2021/01/23 06:08:52;;;;;;;9.52;4.72;;;2.20;99.90;;;0.29;89.26;99330.28;5004266;28;20095;-40
2021/01/23 06:11:21;;;;;;;11.57;4.88;;;2.10;99.90;;;0.27;89.31;99335.81;5053211;28;20041;-40
2021/01/23 06:13:50;;;;;;;7.45;3.83;;;2.10;99.90;;;0.27;89.92;99341.16;5036428;28;20059;-40
2021/01/23 06:16:38;;;;;;;7.97;4.60;;;2.10;99.90;;;0.31;90.02;99338.13;5036516;28;20468;-40
2021/01/23 06:19:07;;;;;;;8.75;4.57;;;2.10;99.90;;;0.35;90.72;99339.41;5036754;28;20053;-40
2021/01/23 06:21:45;;;;;;;11.52;4.50;;;2.10;99.90;;;0.41;90.79;99330.66;5069419;28;20040;-40
2021/01/23 06:24:14;;;;;;;10.93;5.25;;;2.20;99.90;;;0.46;90.78;99328.25;5036442;28;20534;-40
2021/01/23 06:26:54;;;;;;;10.82;5.25;;;2.30;99.90;;;0.42;90.17;99325.09;5036264;28;20048;-40
2021/01/23 06:29:41;;;;;;;10.15;5.10;;;2.30;99.90;;;0.50;90.42;99348.34;5036373;28;20124;-40
2021/01/23 06:32:18;;;;;;;9.57;5.38;;;2.30;99.90;;;0.53;90.04;99353.34;5036338;28;20507;-40
2021/01/23 06:34:49;;;;;;;10.50;5.15;;;2.30;99.90;;;0.61;90.06;99346.22;5052402;28;20128;-40
2021/01/23 06:37:29;;;;;;;10.40;5.35;;;2.40;99.90;;;0.63;89.47;99352.22;5036015;28;20107;-40
2021/01/23 06:40:00;;;;;;;12.07;5.53;;;2.40;99.90;;;0.63;89.80;99350.41;5053789;28;20484;-40
2021/01/23 06:42:28;;;;;;;9.02;5.13;;;2.40;99.90;;;0.63;89.78;99353.06;5052609;28;20079;-40
2021/01/23 06:44:55;;;;;;;10.70;5.45;;;2.40;99.90;;;0.64;89.81;99349.38;5003056;28;20091;-40
2021/01/23 06:47:22;;;;;;;10.88;5.25;;;2.40;99.90;;;0.65;90.12;99353.72;5034941;28;20048;-40
2021/01/23 06:49:50;;;;;;;10.10;5.43;;;2.40;99.90;;;0.66;89.76;99359.91;5035829;28;20036;-40
2021/01/23 06:52:17;;;;;;;11.35;5.57;;;2.40;99.90;;;0.67;90.17;99356.25;5051957;28;20095;-40
2021/01/23 06:54:46;;;;;;;12.00;5.35;;;2.50;99.90;;;0.75;89.92;99357.97;5035768;28;20127;-40
2021/01/23 06:57:14;;;;;;;10.50;5.35;;;2.50;99.90;;;0.77;89.47;99355.94;5052528;28;20061;-40
2021/01/23 06:59:42;;;;;;;9.00;5.05;;;2.50;99.90;;;0.77;89.97;99353.25;5019488;28;20486;-40
2021/01/23 07:02:14;;;;;;;10.93;5.13;;;2.60;99.90;;;0.77;89.83;99353.25;5052049;28;20499;-40
2021/01/23 07:04:51;;;;;;;9.57;5.15;;;2.60;99.90;;;0.83;89.42;99341.81;5035544;28;20102;-40
2021/01/23 07:07:18;;;;;;;9.55;5.35;;;2.60;99.90;;;0.88;89.11;99357.34;5052027;28;20577;-40
2021/01/23 07:09:58;;;;;;;9.48;5.15;;;2.60;99.90;;;0.88;89.21;99360.03;5035431;28;20131;-40
2021/01/23 07:12:47;;;;;;;11.00;4.78;;;2.70;99.90;;;0.93;89.29;99357.59;5051839;28;20044;-40
2021/01/23 07:15:35;;;;;;;10.93;4.57;;;2.70;99.90;;;0.94;88.94;99360.13;5035031;28;20111;-40
2021/01/23 07:18:14;;;;;;;10.07;5.30;;;2.70;99.90;;;0.98;89.08;99355.22;5052976;28;20485;-40
2021/01/23 07:20:41;;;;;;;10.02;5.00;;;2.70;99.90;;;1.03;88.53;99354.66;5051597;28;20102;-40
2021/01/23 07:23:09;;;;;;;9.73;5.20;;;2.80;99.90;;;1.00;88.27;99348.63;5019605;28;20453;-40
2021/01/23 07:25:37;;;;;;;9.35;4.45;;;2.80;99.90;;;1.01;88.43;99360.22;5035505;28;20041;-40
2021/01/23 07:28:04;;;;;;;11.73;6.07;;;2.80;99.90;;;1.08;87.80;99354.94;5035303;28;20049;-40
2021/01/23 07:30:32;;;;;;;12.52;5.85;;;2.80;99.90;;;1.01;87.93;99341.41;5018791;28;20094;-40
2021/01/23 07:32:59;;;;;;;10.25;5.47;;;2.90;99.90;;;1.08;88.08;99350.41;5018971;28;20053;-40
2021/01/23 07:35:37;;;;;;;10.75;5.75;;;2.90;99.90;;;1.14;88.45;99354.19;5035386;28;20116;-40
2021/01/23 07:38:06;;;;;;;10.10;5.35;;;2.90;99.90;;;1.18;88.05;99358.16;5051400;28;20088;-40
2021/01/23 07:40:36;;;;;;;10.27;5.18;;;2.90;99.90;;;1.20;88.11;99352.63;5051380;28;20095;-40
2021/01/23 07:43:06;;;;;;;12.93;5.22;;;2.90;99.90;;;1.15;88.01;99353.16;5034656;28;20118;-40
2021/01/23 07:45:35;;;;;;;12.30;5.65;;;2.90;99.90;;;1.10;87.90;99356.41;5051329;28;20053;-40
2021/01/23 07:48:06;;;;;;;9.65;4.63;;;2.90;99.90;;;1.11;88.08;99350.00;5051324;28;20124;-40
2021/01/23 07:50:46;;;;;;;9.20;4.88;;;2.90;99.90;;;1.15;88.41;99355.84;5051189;28;20045;-40
2021/01/23 07:53:18;;;;;;;12.13;5.40;;;2.90;99.90;;;1.13;88.14;99347.16;5052641;28;20068;-40
2021/01/23 07:55:48;;;;;;;10.68;5.05;;;2.90;99.90;;;1.14;88.34;99348.81;5034797;28;20068;-40
2021/01/23 07:58:16;;;;;;;10.55;5.47;;;2.90;99.90;;;1.07;87.93;99346.03;5050708;28;20077;-40
2021/01/23 08:00:46;;;;;;;10.48;5.03;;;2.90;99.90;;;1.03;88.16;99341.22;5034632;28;20044;-40
2021/01/23 08:03:14;;;;;;;11.38;5.20;;;2.80;99.90;;;0.98;88.32;99339.13;5050930;28;20071;-40
2021/01/23 08:05:51;;;;;;;;;;;2.80;99.90;;;0.87;88.60;99326.97;5035527;28;20049;-40
2021/01/23 08:08:29;;;;;;;8.65;4.78;;;2.80;99.90;;;0.95;88.41;99344.84;5035708;28;19921;-40
2021/01/23 08:10:59;;;;;;;11.73;5.22;;;2.80;99.90;;;0.87;88.48;99345.78;5050777;28;20045;-40
2021/01/23 08:13:30;;;;;;;10.13;5.03;;;2.70;99.90;;;0.81;88.70;99343.84;5051702;28;20120;-40
2021/01/23 08:16:09;;;;;;;9.90;5.18;;;2.70;99.90;;;0.79;88.90;99341.31;5034981;28;20463;-40
2021/01/23 08:18:37;;;;;;;10.07;4.95;;;2.60;99.90;;;0.88;89.16;99346.59;5050847;28;20045;-40
2021/01/23 08:21:19;;;;;;;10.38;5.32;;;2.70;99.90;;;0.96;89.08;99341.16;5050481;28;20048;-40
2021/01/23 08:23:46;;;;;;;11.20;5.63;;;2.70;99.90;;;0.97;89.58;99334.75;5067109;28;20049;-40
2021/01/23 08:26:18;;;;;;;11.38;6.03;;;2.80;99.90;;;1.07;89.97;99337.97;5050454;28;20045;-40
2021/01/23 08:28:48;;;;;;;11.55;5.43;;;2.80;99.90;;;1.16;89.65;99344.09;5051714;28;20068;-40
2021/01/23 08:31:19;;;;;;;11.35;5.30;;;2.90;99.90;;;1.22;89.48;99342.50;5050638;28;20048;-40
2021/01/23 08:36:30;;;;;;;11.65;5.32;;;3.00;99.90;;;1.31;89.41;99346.75;5067160;28;20045;-40
2021/01/23 08:39:02;;;;;;;11.05;4.88;;;3.10;99.90;;;1.42;89.30;99342.75;5050421;28;20072;-40
2021/01/23 08:41:40;;;;;;;9.88;5.10;;;3.10;99.90;;;1.44;89.17;99344.22;5050381;28;20059;-40
2021/01/23 08:44:07;;;;;;;10.73;5.45;;;3.20;99.90;;;1.54;88.69;99349.28;5035478;28;20475;-40
2021/01/23 08:46:35;;;;;;;13.77;5.78;;;3.20;99.90;;;1.56;88.64;99346.41;5034387;28;20055;-40
2021/01/23 08:49:02;;;;;;;9.80;5.57;;;3.30;99.90;;;1.60;88.40;99346.88;5017629;28;20065;-40
2021/01/23 08:51:30;;;;;;;11.65;5.63;;;3.30;99.90;;;1.67;88.27;99351.28;5017241;28;20124;-40
2021/01/23 08:53:57;;;;;;;15.00;6.00;;;3.40;99.90;;;1.71;88.00;99347.19;5050273;28;20360;-40
2021/01/23 08:56:24;;;;;;;13.15;5.15;;;3.40;99.90;;;1.72;87.50;99339.97;5017897;28;20116;-40
2021/01/23 08:58:52;;;;;;;11.50;5.18;;;3.50;99.90;;;1.76;88.60;99346.63;5017561;28;20048;-40
2021/01/23 09:01:19;;;;;;;10.43;5.32;;;3.50;99.90;;;1.76;88.04;99346.63;5017531;28;20049;-40
2021/01/23 09:03:46;;;;;;;11.33;5.50;;;3.50;99.90;;;1.80;88.22;99344.41;5017491;28;20059;-40
2021/01/23 09:06:14;;;;;;;11.55;5.07;;;3.50;99.90;;;1.86;87.58;99338.25;5050335;28;20442;-40
2021/01/23 09:08:41;;;;;;;10.90;5.10;;;3.60;99.90;;;1.89;87.50;99335.16;5033878;28;20045;-40
2021/01/23 09:11:08;;;;;;;9.93;5.37;;;3.60;99.90;;;1.85;87.21;99323.94;5037412;28;20462;-40
2021/01/23 09:13:35;;;;;;;12.02;5.63;;;3.60;99.90;;;2.01;87.02;99336.34;5037657;28;20033;-40
2021/01/23 09:16:03;;;;;;;9.67;4.73;;;3.70;99.90;;;2.03;86.60;99330.75;5021103;28;20041;-40
2021/01/23 09:18:32;;;;;;;;;;;3.70;99.90;;;2.06;86.08;99324.16;5038630;28;20103;-40
2021/01/23 09:21:00;;;;;;;10.82;4.70;;;3.80;99.90;;;2.12;86.88;99334.97;5021802;28;20421;-40
2021/01/23 09:23:28;;;;;;;;;;;3.80;99.90;;;2.17;86.77;99333.56;5054270;28;20049;-41
2021/01/23 09:25:55;;;;;;;8.80;4.70;;;3.90;99.90;;;2.13;85.93;99323.19;5037398;28;20398;-40
2021/01/23 09:28:25;;;;;;;12.77;5.05;;;3.90;99.90;;;2.30;85.67;99336.34;5037247;28;20037;-40
2021/01/23 09:30:52;;;;;;;10.00;5.32;;;4.00;99.90;;;2.34;85.56;99340.31;5070470;28;20037;-40
2021/01/23 09:33:19;;;;;;;14.55;5.82;;;4.00;99.90;;;2.35;85.45;99336.59;5037255;28;20527;-40
2021/01/23 09:35:46;;;;;;;10.60;5.55;;;4.00;99.90;;;2.37;85.12;99337.22;5020884;28;20466;-40
2021/01/23 09:38:13;;;;;;;12.70;5.80;;;4.10;99.90;;;2.40;85.93;99336.88;5020927;28;20072;-40
2021/01/23 09:40:43;;;;;;;9.52;4.88;;;4.10;99.90;;;2.47;85.37;99336.06;5054872;28;20415;-40
2021/01/23 09:43:10;;;;;;;10.77;5.03;;;4.10;99.90;;;2.44;85.52;99332.75;5020896;28;20045;-40
2021/01/23 09:45:37;;;;;;;11.33;5.43;;;4.20;99.90;;;2.37;84.69;99326.47;5053513;28;20065;-40
2021/01/23 09:48:05;;;;;;;10.57;5.15;;;4.20;99.90;;;2.44;85.11;99340.81;5020677;28;20051;-40
2021/01/23 09:50:40;;;;;;;8.07;4.60;;;4.20;99.90;;;2.46;85.30;99342.50;5053666;28;20049;-40
2021/01/23 09:53:07;;;;;;;8.48;4.60;;;4.10;99.90;;;2.46;84.80;99335.22;5053463;28;20076;-40
2021/01/23 09:55:34;;;;;;;10.68;4.88;;;4.20;99.90;;;2.50;84.81;99349.97;5036726;28;20515;-40
2021/01/23 09:58:04;;;;;;;9.55;5.05;;;4.20;99.90;;;2.60;84.79;99336.16;5037001;28;20037;-40
2021/01/23 10:00:31;;;;;;;8.63;5.05;;;4.30;99.90;;;2.61;84.63;99337.81;5053244;28;20080;-40
2021/01/23 10:02:59;;;;;;;8.98;4.45;;;4.30;99.90;;;2.66;84.50;99330.00;5053386;28;20436;-40
2021/01/23 10:05:27;;;;;;;10.45;5.20;;;4.30;99.90;;;2.71;84.21;99335.63;5053015;28;20045;-40
2021/01/23 10:07:54;;;;;;;9.63;5.13;;;4.30;99.90;;;2.82;83.22;99333.38;5020413;28;20515;-40
2021/01/23 10:10:21;;;;;;;10.02;5.40;;;4.50;99.90;;;2.87;84.13;99329.09;5036536;28;20045;-40
2021/01/23 10:12:48;;;;;;;10.60;4.60;;;4.50;99.90;;;2.98;83.56;99332.22;5020401;28;20041;-40
2021/01/23 10:15:16;;;;;;;9.90;4.95;;;4.60;99.90;;;3.02;83.27;99322.72;5052766;28;20415;-40
2021/01/23 10:17:43;;;;;;;10.05;5.72;;;4.60;99.90;;;3.11;82.98;99331.47;5036714;28;20106;-40
2021/01/23 10:20:11;;;;;;;11.53;5.93;;;4.70;99.90;;;3.12;82.54;99311.56;5036387;28;20044;-40
2021/01/23 10:22:38;;;;;;;;;;;4.80;99.90;;;3.34;83.30;99319.53;5053466;28;20139;-40
2021/01/23 10:25:07;;;;;;;11.40;5.50;;;4.90;99.90;;;3.46;82.22;99320.63;5036047;28;19920;-40
2021/01/23 10:27:36;;;;;;;8.13;4.75;;;5.00;99.90;;;3.57;81.66;99316.50;5052819;28;20057;-40
2021/01/23 10:30:07;;;;;;;11.68;5.43;;;5.10;99.90;;;3.63;81.20;99315.69;5052826;28;20037;-40
2021/01/23 10:32:34;;;;;;;12.32;5.75;;;5.20;99.90;;;3.66;81.20;99312.59;5053946;28;20470;-40
2021/01/23 10:35:03;;;;;;;10.88;4.72;;;5.20;99.90;;;3.65;80.75;99300.13;5036231;28;20087;-40
2021/01/23 10:37:31;;;;;;;8.82;4.47;;;5.20;99.90;;;3.71;80.44;99304.72;5054166;28;20044;-40
2021/01/23 10:39:58;;;;;;;8.60;4.90;;;5.30;99.90;;;3.70;79.94;99307.59;5003649;28;20029;-40
2021/01/23 10:42:25;;;;;;;9.27;4.70;;;5.30;99.90;;;3.74;79.37;99304.28;5035859;28;20572;-40